createdAt,value
2022-10-30T00:00:34.330Z,89.34
2022-10-30T00:03:02.546Z,89.07
2022-10-30T00:05:30.765Z,89.22
2022-10-30T00:07:59.723Z,89.32
2022-10-30T00:10:29.168Z,89.15
2022-10-30T00:12:57.954Z,89.43
2022-10-30T00:15:25.733Z,88.88
2022-10-30T00:17:54.316Z,89.48
2022-10-30T00:20:22.136Z,89.55
2022-10-30T00:22:49.901Z,89.50
2022-10-30T00:25:17.788Z,89.56
2022-10-30T00:27:46.919Z,89.46
2022-10-30T00:30:15.446Z,90.02
2022-10-30T00:32:43.873Z,90.06
2022-10-30T00:35:11.741Z,89.78
2022-10-30T00:37:39.816Z,90.23
2022-10-30T00:40:14.871Z,90.77
2022-10-30T00:42:43.307Z,90.91
2022-10-30T00:45:14.678Z,90.55
2022-10-30T00:47:45.093Z,90.52
2022-10-30T00:50:17.565Z,90.78
2022-10-30T00:52:49.930Z,90.80
2022-10-30T00:55:21.950Z,90.69
2022-10-30T00:57:50.667Z,90.71
2022-10-30T01:00:21.713Z,91.07
2022-10-30T01:02:51.009Z,90.36
2022-10-30T01:05:22.714Z,90.43
2022-10-30T01:07:50.527Z,90.30
2022-10-30T01:10:18.907Z,90.49
2022-10-30T01:12:49.057Z,90.54
2022-10-30T01:15:17.167Z,90.57
2022-10-30T01:18:08.380Z,90.80
2022-10-30T01:20:56.977Z,90.69
2022-10-30T01:23:38.621Z,90.70
2022-10-30T01:26:16.934Z,90.57
2022-10-30T01:28:58.809Z,90.45
2022-10-30T01:31:39.636Z,90.36
2022-10-30T01:34:19.125Z,90.16
2022-10-30T01:36:53.173Z,90.39
2022-10-30T01:39:25.061Z,90.41
2022-10-30T01:41:53.171Z,90.34
2022-10-30T01:44:25.431Z,90.44
2022-10-30T01:47:10.749Z,90.56
2022-10-30T01:50:14.557Z,90.36
2022-10-30T01:52:50.519Z,90.36
2022-10-30T01:55:30.626Z,90.44
2022-10-30T01:58:03.549Z,90.62
2022-10-30T02:00:31.301Z,90.20
2022-10-30T02:02:59.536Z,90.38
2022-10-30T02:05:37.448Z,90.50
2022-10-30T02:08:05.645Z,90.53
2022-10-30T02:10:36.049Z,90.42
2022-10-30T02:13:04.334Z,90.71
2022-10-30T02:15:33.110Z,91.08
2022-10-30T02:18:01.529Z,91.22
2022-10-30T02:20:31.239Z,91.49
2022-10-30T02:22:59.614Z,91.43
2022-10-30T02:25:28.204Z,91.14
2022-10-30T02:27:56.005Z,91.32
2022-10-30T02:30:23.783Z,90.93
2022-10-30T02:32:51.546Z,90.34
2022-10-30T02:35:19.226Z,90.72
2022-10-30T02:37:49.874Z,90.64
2022-10-30T02:40:17.846Z,90.25
2022-10-30T02:42:45.587Z,91.46
2022-10-30T02:45:13.431Z,91.41
2022-10-30T02:47:41.185Z,91.36
2022-10-30T02:50:10.308Z,91.32
2022-10-30T02:52:38.094Z,91.18
2022-10-30T02:55:09.764Z,90.66
2022-10-30T02:57:38.445Z,90.32
2022-10-30T03:00:07.446Z,90.36
2022-10-30T03:02:35.240Z,90.03
2022-10-30T03:05:02.962Z,90.00
2022-10-30T03:07:30.886Z,90.13
2022-10-30T03:09:58.684Z,89.88
2022-10-30T03:12:27.774Z,89.84
2022-10-30T03:14:55.497Z,89.41
2022-10-30T03:17:23.372Z,89.37
2022-10-30T03:19:51.462Z,89.76
2022-10-30T03:22:19.211Z,90.11
2022-10-30T03:24:46.970Z,90.01
2022-10-30T03:27:14.768Z,90.34
2022-10-30T03:29:43.860Z,90.61
2022-10-30T03:32:12.572Z,89.58
2022-10-30T03:34:40.441Z,89.57
2022-10-30T03:37:08.191Z,90.56
2022-10-30T03:39:36.123Z,91.64
2022-10-30T03:42:03.926Z,91.63
2022-10-30T03:44:31.745Z,90.20
2022-10-30T03:47:00.886Z,90.01
2022-10-30T03:49:28.613Z,89.98
2022-10-30T03:51:56.375Z,90.42
2022-10-30T03:54:24.204Z,90.65
2022-10-30T03:56:52.032Z,90.24
2022-10-30T03:59:19.776Z,90.16
2022-10-30T04:01:48.057Z,90.09
2022-10-30T04:04:17.535Z,90.83
2022-10-30T04:06:45.297Z,90.34
2022-10-30T04:09:12.985Z,90.34
2022-10-30T04:11:40.722Z,90.39
2022-10-30T04:14:08.626Z,91.35
2022-10-30T04:16:36.317Z,91.00
2022-10-30T04:19:04.048Z,91.92
2022-10-30T04:21:33.612Z,92.42
2022-10-30T04:24:01.281Z,92.49
2022-10-30T04:26:29.421Z,91.96
2022-10-30T04:28:57.250Z,91.81
2022-10-30T04:31:25.053Z,91.26
2022-10-30T04:33:52.793Z,90.54
2022-10-30T04:36:21.801Z,90.56
2022-10-30T04:38:51.350Z,90.39
2022-10-30T04:41:19.094Z,90.38
2022-10-30T04:43:49.437Z,90.48
2022-10-30T04:46:17.510Z,90.36
2022-10-30T04:48:45.302Z,89.72
2022-10-30T04:51:13.057Z,89.95
2022-10-30T04:53:41.002Z,90.02
2022-10-30T04:56:10.618Z,90.61
2022-10-30T04:58:38.445Z,90.55
2022-10-30T05:01:07.387Z,90.61
2022-10-30T05:03:36.058Z,90.62
2022-10-30T05:06:06.832Z,90.55
2022-10-30T05:08:35.107Z,90.62
2022-10-30T05:11:05.297Z,90.65
2022-10-30T05:13:34.487Z,90.59
2022-10-30T05:16:02.286Z,90.75
2022-10-30T05:18:30.147Z,90.65
2022-10-30T05:20:57.971Z,90.42
2022-10-30T05:23:25.686Z,90.53
2022-10-30T05:25:53.657Z,90.44
2022-10-30T05:28:21.483Z,90.43
2022-10-30T05:30:54.050Z,90.61
2022-10-30T05:33:23.431Z,90.22
2022-10-30T05:35:51.364Z,90.30
2022-10-30T05:38:19.163Z,89.91
2022-10-30T05:40:47.660Z,90.06
2022-10-30T05:43:15.472Z,90.24
2022-10-30T05:45:43.863Z,90.06
2022-10-30T05:48:12.913Z,90.01
2022-10-30T05:50:40.707Z,90.90
2022-10-30T05:53:08.606Z,90.87
2022-10-30T05:55:36.544Z,90.78
2022-10-30T05:58:06.521Z,91.14
2022-10-30T06:00:36.293Z,90.89
2022-10-30T06:03:06.054Z,90.84
2022-10-30T06:05:36.916Z,90.74
2022-10-30T06:08:06.402Z,90.67
2022-10-30T06:10:34.341Z,91.06
2022-10-30T06:13:03.958Z,90.69
2022-10-30T06:15:32.121Z,90.80
2022-10-30T06:18:00.777Z,90.39
2022-10-30T06:20:30.885Z,90.57
2022-10-30T06:23:02.275Z,90.47
2022-10-30T06:25:33.201Z,90.69
2022-10-30T06:28:04.590Z,91.00
2022-10-30T06:30:32.448Z,90.88
2022-10-30T06:33:00.776Z,91.63
2022-10-30T06:35:29.701Z,91.85
2022-10-30T06:38:00.067Z,91.46
2022-10-30T06:40:30.520Z,91.39
2022-10-30T06:42:59.341Z,91.37
2022-10-30T06:45:27.360Z,91.44
2022-10-30T06:47:55.384Z,91.27
2022-10-30T06:50:24.323Z,91.46
2022-10-30T06:52:52.129Z,91.65
2022-10-30T06:55:19.876Z,91.59
2022-10-30T06:57:54.788Z,91.67
2022-10-30T07:00:22.669Z,91.33
2022-10-30T07:02:58.833Z,91.47
2022-10-30T07:05:27.018Z,91.42
2022-10-30T07:07:58.047Z,91.40
2022-10-30T07:10:25.874Z,91.01
2022-10-30T07:12:57.425Z,90.79
2022-10-30T07:15:25.959Z,90.08
2022-10-30T07:17:56.053Z,90.44
2022-10-30T07:20:24.645Z,90.20
2022-10-30T07:22:52.869Z,90.33
2022-10-30T07:25:21.348Z,89.82
2022-10-30T07:27:50.658Z,90.18
2022-10-30T07:30:21.447Z,90.32
2022-10-30T07:32:58.179Z,90.30
2022-10-30T07:35:26.264Z,90.37
2022-10-30T07:37:54.373Z,88.94
2022-10-30T07:40:22.460Z,88.67
2022-10-30T07:42:50.229Z,88.05
2022-10-30T07:45:21.576Z,87.49
2022-10-30T07:47:50.209Z,86.75
2022-10-30T07:50:18.205Z,87.27
2022-10-30T07:52:45.965Z,86.38
2022-10-30T07:55:13.864Z,85.95
2022-10-30T07:57:43.113Z,86.48
2022-10-30T08:00:13.359Z,86.92
2022-10-30T08:02:42.862Z,86.49
2022-10-30T08:05:11.063Z,86.14
2022-10-30T08:07:39.834Z,86.29
2022-10-30T08:10:09.378Z,85.55
2022-10-30T08:12:38.249Z,84.85
2022-10-30T08:15:07.119Z,85.07
2022-10-30T08:17:44.642Z,84.58
2022-10-30T08:20:14.081Z,84.75
2022-10-30T08:22:46.948Z,84.38
2022-10-30T08:25:15.402Z,83.95
2022-10-30T08:27:54.594Z,83.29
2022-10-30T08:30:23.049Z,83.56
2022-10-30T08:32:52.253Z,82.59
2022-10-30T08:35:20.483Z,82.89
2022-10-30T08:37:48.730Z,82.98
2022-10-30T08:40:16.931Z,82.33
2022-10-30T08:42:52.053Z,81.98
2022-10-30T08:45:20.119Z,81.81
2022-10-30T08:47:48.140Z,81.38
2022-10-30T08:50:17.549Z,81.37
2022-10-30T08:52:48.230Z,81.82
2022-10-30T08:55:18.640Z,81.08
2022-10-30T08:57:46.694Z,80.42
2022-10-30T09:00:14.942Z,80.08
2022-10-30T09:02:42.893Z,79.77
2022-10-30T09:05:10.848Z,79.36
2022-10-30T09:07:40.061Z,78.87
2022-10-30T09:10:09.064Z,78.17
2022-10-30T09:12:38.324Z,78.03
2022-10-30T09:15:08.238Z,77.62
2022-10-30T09:17:36.501Z,77.03
2022-10-30T09:20:05.313Z,76.91
2022-10-30T09:22:33.213Z,76.67
2022-10-30T09:25:02.431Z,78.25
2022-10-30T09:27:30.225Z,77.37
2022-10-30T09:29:58.136Z,77.28
2022-10-30T09:32:26.011Z,78.03
2022-10-30T09:34:53.808Z,77.90
2022-10-30T09:37:23.371Z,76.74
2022-10-30T09:39:51.200Z,76.84
2022-10-30T09:42:45.655Z,76.28
2022-10-30T09:45:46.733Z,75.50
2022-10-30T09:48:43.417Z,75.10
2022-10-30T09:51:23.174Z,74.52
2022-10-30T09:54:03.541Z,74.43
2022-10-30T09:56:35.749Z,74.36
2022-10-30T09:59:11.997Z,74.09
2022-10-30T10:01:46.397Z,73.35
2022-10-30T10:04:26.787Z,74.13
2022-10-30T10:07:01.587Z,74.83
2022-10-30T10:09:32.262Z,73.85
2022-10-30T10:12:05.746Z,72.68
2022-10-30T10:14:39.861Z,71.99
2022-10-30T10:17:14.202Z,72.92
2022-10-30T10:19:50.095Z,70.67
2022-10-30T10:22:22.648Z,71.64
2022-10-30T10:24:50.919Z,71.77
2022-10-30T10:27:31.033Z,70.48
2022-10-30T10:30:04.594Z,69.64
2022-10-30T10:32:50.051Z,69.01
2022-10-30T10:35:29.377Z,67.88
2022-10-30T10:38:05.078Z,68.87
2022-10-30T10:40:51.297Z,68.34
2022-10-30T10:43:32.453Z,67.77
2022-10-30T10:46:23.016Z,66.82
2022-10-30T10:49:05.174Z,67.20
2022-10-30T10:51:37.293Z,66.43
2022-10-30T10:54:12.120Z,66.09
2022-10-30T10:56:43.601Z,65.09
2022-10-30T10:59:19.082Z,63.99
2022-10-30T11:01:55.272Z,63.16
2022-10-30T11:04:32.129Z,63.05
2022-10-30T11:07:03.648Z,63.53
2022-10-30T11:09:31.436Z,64.13
2022-10-30T11:11:59.400Z,63.05
2022-10-30T11:14:32.744Z,62.84
2022-10-30T11:17:11.981Z,61.51
2022-10-30T11:19:39.848Z,60.63
2022-10-30T11:22:19.965Z,61.00
2022-10-30T11:24:47.694Z,60.28
2022-10-30T11:27:26.961Z,59.49
2022-10-30T11:29:57.424Z,58.29
2022-10-30T11:32:29.224Z,58.10
2022-10-30T11:35:12.139Z,58.23
2022-10-30T11:37:41.507Z,58.10
2022-10-30T11:40:18.460Z,57.62
2022-10-30T11:42:49.508Z,58.56
2022-10-30T11:45:19.815Z,58.10
2022-10-30T11:47:49.515Z,57.57
2022-10-30T11:50:21.217Z,57.92
2022-10-30T11:52:51.823Z,56.81
2022-10-30T11:55:21.835Z,55.20
2022-10-30T11:57:52.199Z,53.88
2022-10-30T12:00:22.375Z,54.58
2022-10-30T12:02:53.454Z,55.56
2022-10-30T12:05:34.351Z,55.95
2022-10-30T12:08:29.049Z,54.05
2022-10-30T12:11:02.623Z,54.41
2022-10-30T12:13:37.465Z,54.52
2022-10-30T12:16:17.590Z,54.13
2022-10-30T12:18:58.194Z,52.72
2022-10-30T12:21:27.100Z,52.77
2022-10-30T12:23:58.791Z,51.00
2022-10-30T12:26:27.361Z,50.83
2022-10-30T12:29:00.691Z,51.49
2022-10-30T12:31:38.009Z,50.77
2022-10-30T12:34:41.370Z,50.29
2022-10-30T12:37:16.346Z,48.59
2022-10-30T12:39:52.308Z,48.25
2022-10-30T12:42:23.021Z,48.35
2022-10-30T12:44:56.419Z,48.61
2022-10-30T12:47:30.775Z,49.55
2022-10-30T12:52:43.398Z,50.16
2022-10-30T12:55:19.472Z,50.64
2022-10-30T12:57:52.073Z,50.99
2022-10-30T13:00:20.553Z,50.56
2022-10-30T13:02:56.897Z,50.84
2022-10-30T13:05:36.903Z,49.22
2022-10-30T13:08:27.254Z,48.52
2022-10-30T13:11:01.029Z,49.61
2022-10-30T13:13:33.591Z,49.51
2022-10-30T13:16:04.194Z,48.82
2022-10-30T13:18:32.957Z,49.52
2022-10-30T13:21:18.032Z,49.45
2022-10-30T13:23:52.391Z,49.30
2022-10-30T13:26:29.927Z,50.13
2022-10-30T13:29:06.993Z,51.12
2022-10-30T13:31:48.709Z,51.57
2022-10-30T13:34:29.623Z,50.42
2022-10-30T13:37:04.508Z,51.02
2022-10-30T13:39:40.386Z,50.04
2022-10-30T13:42:25.673Z,50.79
2022-10-30T13:45:06.453Z,51.26
2022-10-30T13:47:45.226Z,51.64
2022-10-30T13:50:27.749Z,51.52
2022-10-30T13:53:01.574Z,51.82
2022-10-30T13:55:32.085Z,51.69
2022-10-30T13:58:06.252Z,51.15
2022-10-30T14:00:54.677Z,51.53
2022-10-30T14:03:34.768Z,51.56
2022-10-30T14:06:12.091Z,51.36
2022-10-30T14:08:47.451Z,52.05
2022-10-30T14:11:15.854Z,52.09
2022-10-30T14:13:52.690Z,52.55
2022-10-30T14:16:36.629Z,53.87
2022-10-30T14:19:05.458Z,53.46
2022-10-30T14:21:44.840Z,54.10
2022-10-30T14:24:21.319Z,54.54
2022-10-30T14:26:55.876Z,54.26
2022-10-30T14:29:42.914Z,54.79
2022-10-30T14:32:42.964Z,55.80
2022-10-30T14:35:36.703Z,56.34
2022-10-30T14:38:35.682Z,55.69
2022-10-30T14:41:41.881Z,56.75
2022-10-30T14:44:23.867Z,56.66
2022-10-30T14:47:06.452Z,56.85
2022-10-30T14:49:51.378Z,57.04
2022-10-30T14:52:29.799Z,57.00
2022-10-30T14:55:07.135Z,57.32
2022-10-30T14:57:48.254Z,57.57
2022-10-30T15:00:48.375Z,57.68
2022-10-30T15:03:34.655Z,57.54
2022-10-30T15:06:13.174Z,58.83
2022-10-30T15:08:55.597Z,58.92
2022-10-30T15:11:38.529Z,59.42
2022-10-30T15:14:21.076Z,60.42
2022-10-30T15:16:52.250Z,61.20
2022-10-30T15:19:22.805Z,61.33
2022-10-30T15:21:53.783Z,61.58
2022-10-30T15:24:26.923Z,62.05
2022-10-30T15:27:01.090Z,62.54
2022-10-30T15:29:33.330Z,63.46
2022-10-30T15:32:03.951Z,63.56
2022-10-30T15:34:34.095Z,64.54
2022-10-30T15:37:11.793Z,65.13
2022-10-30T15:39:39.697Z,65.81
2022-10-30T15:42:07.499Z,66.73
2022-10-30T15:44:46.157Z,67.64
2022-10-30T15:47:18.676Z,67.94
2022-10-30T15:49:51.877Z,69.14
2022-10-30T15:52:23.221Z,69.96
2022-10-30T15:54:57.624Z,70.49
2022-10-30T15:58:13.127Z,70.77
2022-10-30T16:00:22.784Z,70.83
2022-10-30T16:03:01.416Z,71.74
2022-10-30T16:05:30.172Z,72.16
2022-10-30T16:07:59.908Z,72.63
2022-10-30T16:10:35.293Z,73.93
2022-10-30T16:13:04.766Z,74.30
2022-10-30T16:15:35.643Z,74.98
2022-10-30T16:18:14.708Z,75.16
2022-10-30T16:20:46.003Z,75.15
2022-10-30T16:23:15.162Z,75.26
2022-10-30T16:25:47.288Z,75.79
2022-10-30T16:28:31.315Z,76.92
2022-10-30T16:31:02.077Z,76.98
2022-10-30T16:33:32.918Z,77.47
2022-10-30T16:36:03.054Z,77.65
2022-10-30T16:38:35.199Z,78.34
2022-10-30T16:41:05.233Z,78.37
2022-10-30T16:43:34.657Z,78.57
2022-10-30T16:46:35.704Z,78.69
2022-10-30T16:49:08.343Z,79.23
2022-10-30T16:51:39.335Z,79.51
2022-10-30T16:54:08.148Z,79.92
2022-10-30T16:56:36.557Z,80.65
2022-10-30T16:59:12.997Z,81.15
2022-10-30T17:01:41.643Z,81.24
2022-10-30T17:04:17.394Z,81.71
2022-10-30T17:06:46.414Z,82.36
2022-10-30T17:09:23.291Z,82.77
2022-10-30T17:12:06.103Z,82.93
2022-10-30T17:14:45.520Z,82.78
2022-10-30T17:17:28.477Z,83.24
2022-10-30T17:20:00.687Z,83.96
2022-10-30T17:22:30.053Z,84.63
2022-10-30T17:25:01.068Z,84.76
2022-10-30T17:27:49.446Z,85.26
2022-10-30T17:30:35.998Z,85.66
2022-10-30T17:33:23.451Z,85.84
2022-10-30T17:38:22.492Z,86.48
2022-10-30T17:40:50.668Z,86.79
2022-10-30T17:43:18.503Z,87.01
2022-10-30T17:45:46.371Z,87.31
2022-10-30T17:48:16.807Z,87.77
2022-10-30T17:50:46.059Z,87.81
2022-10-30T17:53:50.539Z,87.71
2022-10-30T17:59:07.803Z,87.73
2022-10-30T18:01:36.145Z,88.56
2022-10-30T18:04:17.896Z,88.51
2022-10-30T18:06:50.103Z,89.19
2022-10-30T18:09:19.260Z,88.76
2022-10-30T18:11:47.175Z,89.10
2022-10-30T18:14:18.990Z,89.24
2022-10-30T18:18:00.483Z,88.90
2022-10-30T18:20:28.829Z,88.62
2022-10-30T18:22:56.975Z,89.15
2022-10-30T18:25:29.641Z,89.04
2022-10-30T18:27:57.573Z,89.03
2022-10-30T18:30:26.225Z,89.15
2022-10-30T18:32:54.009Z,88.97
2022-10-30T18:35:28.176Z,89.63
2022-10-30T18:37:55.978Z,90.44
2022-10-30T18:40:24.374Z,90.10
2022-10-30T18:42:53.551Z,89.90
2022-10-30T18:45:24.386Z,89.94
2022-10-30T18:47:53.368Z,90.06
2022-10-30T18:50:22.987Z,90.33
2022-10-30T18:52:51.457Z,90.45
2022-10-30T18:55:31.790Z,90.53
2022-10-30T18:58:01.917Z,90.56
2022-10-30T19:00:39.665Z,90.11
2022-10-30T19:03:18.871Z,90.05
2022-10-30T19:05:49.088Z,90.71
2022-10-30T19:08:17.063Z,90.07
2022-10-30T19:10:46.721Z,89.45
2022-10-30T19:13:19.471Z,89.64
2022-10-30T19:15:49.502Z,90.33
2022-10-30T19:18:18.795Z,90.30
2022-10-30T19:23:34.688Z,90.56
2022-10-30T19:26:02.860Z,90.75
2022-10-30T19:28:32.704Z,90.75
2022-10-30T19:31:00.818Z,91.18
2022-10-30T19:33:28.609Z,90.53
2022-10-30T19:35:57.980Z,90.60
2022-10-30T19:38:25.902Z,90.38
2022-10-30T19:40:54.391Z,90.59
2022-10-30T19:43:22.258Z,90.50
2022-10-30T19:45:55.653Z,90.49
2022-10-30T19:48:55.646Z,90.04
2022-10-30T19:51:12.587Z,89.97
2022-10-30T19:53:40.728Z,90.43
2022-10-30T19:56:11.058Z,91.10
2022-10-30T19:58:38.809Z,91.24
2022-10-30T20:01:08.353Z,91.29
2022-10-30T20:03:36.190Z,91.19
2022-10-30T20:06:04.078Z,90.98
2022-10-30T20:08:32.068Z,90.80
2022-10-30T20:11:00.915Z,90.84
2022-10-30T20:13:29.687Z,91.40
2022-10-30T20:15:59.773Z,91.11
2022-10-30T20:18:31.399Z,91.02
2022-10-30T20:21:01.088Z,91.03
2022-10-30T20:23:29.923Z,90.57
2022-10-30T20:26:01.206Z,90.86
2022-10-30T20:28:32.728Z,90.59
2022-10-30T20:31:00.945Z,90.76
2022-10-30T20:33:30.410Z,90.44
2022-10-30T20:35:58.221Z,90.76
2022-10-30T20:38:29.059Z,90.52
2022-10-30T20:40:58.350Z,90.80
2022-10-30T20:43:33.436Z,90.97
2022-10-30T20:46:02.176Z,91.57
2022-10-30T20:48:31.669Z,90.98
2022-10-30T20:51:01.388Z,91.15
2022-10-30T20:53:30.240Z,90.75
2022-10-30T20:55:58.605Z,90.80
2022-10-30T20:58:26.533Z,91.99
2022-10-30T21:00:55.245Z,90.70
2022-10-30T21:03:23.265Z,90.29
2022-10-30T21:05:56.077Z,90.04
2022-10-30T21:08:23.945Z,90.49
2022-10-30T21:10:51.794Z,89.95
2022-10-30T21:13:19.543Z,89.85
2022-10-30T21:15:47.430Z,89.75
2022-10-30T21:18:15.296Z,89.56
2022-10-30T21:20:43.222Z,89.80
2022-10-30T21:23:13.017Z,89.76
2022-10-30T21:25:40.977Z,90.09
2022-10-30T21:28:08.814Z,90.75
2022-10-30T21:30:36.798Z,90.85
2022-10-30T21:33:05.103Z,90.35
2022-10-30T21:35:32.997Z,91.13
2022-10-30T21:38:02.324Z,91.28
2022-10-30T21:40:31.583Z,91.43
2022-10-30T21:43:03.047Z,90.92
2022-10-30T21:45:32.557Z,90.62
2022-10-30T21:48:01.137Z,91.26
2022-10-30T21:50:28.946Z,90.72
2022-10-30T21:52:56.957Z,90.93
2022-10-30T21:55:24.983Z,91.36
2022-10-30T21:57:54.904Z,91.60
2022-10-30T22:00:22.993Z,92.05
2022-10-30T22:02:51.900Z,91.64
2022-10-30T22:05:19.764Z,91.71
2022-10-30T22:07:47.480Z,91.79
2022-10-30T22:10:15.256Z,91.68
2022-10-30T22:12:43.002Z,92.16
2022-10-30T22:15:12.276Z,91.59
2022-10-30T22:17:39.997Z,92.40
2022-10-30T22:20:09.388Z,91.37
2022-10-30T22:22:37.082Z,91.91
2022-10-30T22:25:05.084Z,91.34
2022-10-30T22:27:32.846Z,91.65
2022-10-30T22:30:00.582Z,91.67
2022-10-30T22:32:29.664Z,91.43
2022-10-30T22:34:58.812Z,91.89
2022-10-30T22:37:26.640Z,92.02
2022-10-30T22:39:54.383Z,91.64
2022-10-30T22:42:22.311Z,94.09
2022-10-30T22:44:50.306Z,92.22
2022-10-30T22:47:18.161Z,92.32
2022-10-30T22:49:47.267Z,92.76
2022-10-30T22:52:15.234Z,92.04
2022-10-30T22:54:43.088Z,91.50
2022-10-30T22:57:10.910Z,91.47
2022-10-30T22:59:38.777Z,92.06
2022-10-30T23:02:06.690Z,91.61
2022-10-30T23:04:34.568Z,91.72
2022-10-30T23:07:03.649Z,92.14
2022-10-30T23:09:31.626Z,92.10
2022-10-30T23:11:59.544Z,92.34
2022-10-30T23:14:27.367Z,91.55
2022-10-30T23:16:55.237Z,92.48
2022-10-30T23:19:23.035Z,92.88
2022-10-30T23:21:50.812Z,93.27
2022-10-30T23:24:19.934Z,93.14
2022-10-30T23:26:47.727Z,92.16
2022-10-30T23:29:15.531Z,91.95
2022-10-30T23:31:43.901Z,92.39
2022-10-30T23:34:13.710Z,91.82
2022-10-30T23:36:42.258Z,92.13
2022-10-30T23:39:12.300Z,91.68
2022-10-30T23:41:41.825Z,92.02
2022-10-30T23:44:12.985Z,91.97
2022-10-30T23:46:40.881Z,91.85
2022-10-30T23:49:08.767Z,91.87
2022-10-30T23:51:36.614Z,91.69
2022-10-30T23:54:04.598Z,91.78
2022-10-30T23:56:32.443Z,91.19
2022-10-30T23:59:01.682Z,91.24
